sensor_id;sensor_type;location;lat;lon;timestamp;pressure;altitude;pressure_sealevel;temperature;humidity
59391;BME280;53405;57.012;40.984;2023-03-21T00:01:49;99738.88;;;1.88;69.28
59391;BME280;53405;57.012;40.984;2023-03-21T00:04:18;99741.72;;;1.85;69.27
59391;BME280;53405;57.012;40.984;2023-03-21T00:06:46;99728.34;;;1.68;69.66
59391;BME280;53405;57.012;40.984;2023-03-21T00:09:13;99733.16;;;1.73;69.13
59391;BME280;53405;57.012;40.984;2023-03-21T00:11:41;99734.81;;;1.74;69.11
59391;BME280;53405;57.012;40.984;2023-03-21T00:14:09;99727.72;;;1.76;69.66
59391;BME280;53405;57.012;40.984;2023-03-21T00:16:40;99729.03;;;1.70;68.33
59391;BME280;53405;57.012;40.984;2023-03-21T00:19:08;99720.06;;;1.74;69.89
59391;BME280;53405;57.012;40.984;2023-03-21T00:21:36;99715.56;;;1.76;70.19
59391;BME280;53405;57.012;40.984;2023-03-21T00:24:17;99711.47;;;1.74;69.59
59391;BME280;53405;57.012;40.984;2023-03-21T00:26:45;99710.38;;;1.76;69.76
59391;BME280;53405;57.012;40.984;2023-03-21T00:29:12;99707.41;;;1.60;70.35
59391;BME280;53405;57.012;40.984;2023-03-21T00:31:39;99684.47;;;1.23;69.74
59391;BME280;53405;57.012;40.984;2023-03-21T00:34:06;99693.66;;;1.27;70.37
59391;BME280;53405;57.012;40.984;2023-03-21T00:36:34;99697.66;;;1.31;71.71
59391;BME280;53405;57.012;40.984;2023-03-21T00:39:01;99705.34;;;1.21;70.62
59391;BME280;53405;57.012;40.984;2023-03-21T00:41:32;99712.63;;;1.27;70.42
59391;BME280;53405;57.012;40.984;2023-03-21T00:44:14;99696.06;;;1.19;71.12
59391;BME280;53405;57.012;40.984;2023-03-21T00:46:42;99698.34;;;1.01;71.21
59391;BME280;53405;57.012;40.984;2023-03-21T00:49:29;99702.16;;;0.97;72.00
59391;BME280;53405;57.012;40.984;2023-03-21T00:52:03;99611.06;;;0.58;72.43
59391;BME280;53405;57.012;40.984;2023-03-21T00:54:41;99699.19;;;1.01;72.13
59391;BME280;53405;57.012;40.984;2023-03-21T00:57:08;99689.00;;;1.10;72.24
59391;BME280;53405;57.012;40.984;2023-03-21T00:59:35;99698.03;;;0.94;72.37
59391;BME280;53405;57.012;40.984;2023-03-21T01:02:02;99695.13;;;1.08;72.39
59391;BME280;53405;57.012;40.984;2023-03-21T01:04:33;99686.66;;;1.06;73.41
59391;BME280;53405;57.012;40.984;2023-03-21T01:07:00;99688.81;;;1.01;72.17
59391;BME280;53405;57.012;40.984;2023-03-21T01:09:27;99688.22;;;1.09;72.19
59391;BME280;53405;57.012;40.984;2023-03-21T01:11:56;99682.28;;;1.07;72.63
59391;BME280;53405;57.012;40.984;2023-03-21T01:14:24;99685.94;;;1.16;72.45
59391;BME280;53405;57.012;40.984;2023-03-21T01:16:53;99671.00;;;1.08;71.91
59391;BME280;53405;57.012;40.984;2023-03-21T01:19:22;99672.97;;;1.16;72.68
59391;BME280;53405;57.012;40.984;2023-03-21T01:22:03;99680.63;;;1.17;72.38
59391;BME280;53405;57.012;40.984;2023-03-21T01:24:31;99677.34;;;1.15;72.43
59391;BME280;53405;57.012;40.984;2023-03-21T01:27:02;99676.69;;;1.23;73.04
59391;BME280;53405;57.012;40.984;2023-03-21T01:29:29;99680.69;;;1.27;72.80
59391;BME280;53405;57.012;40.984;2023-03-21T01:31:56;99672.59;;;1.20;72.61
59391;BME280;53405;57.012;40.984;2023-03-21T01:34:24;99674.50;;;1.18;72.15
59391;BME280;53405;57.012;40.984;2023-03-21T01:36:53;99624.16;;;0.88;73.57
59391;BME280;53405;57.012;40.984;2023-03-21T01:39:20;99664.50;;;1.14;73.02
59391;BME280;53405;57.012;40.984;2023-03-21T01:41:49;99643.94;;;0.89;73.55
59391;BME280;53405;57.012;40.984;2023-03-21T01:44:19;99660.09;;;0.93;73.82
59391;BME280;53405;57.012;40.984;2023-03-21T01:46:50;99657.38;;;0.95;73.04
59391;BME280;53405;57.012;40.984;2023-03-21T01:49:39;99655.22;;;1.00;74.91
59391;BME280;53405;57.012;40.984;2023-03-21T01:52:40;99652.75;;;0.98;73.01
59391;BME280;53405;57.012;40.984;2023-03-21T01:55:18;99660.69;;;1.18;74.12
59391;BME280;53405;57.012;40.984;2023-03-21T01:57:59;99646.72;;;1.09;73.10
59391;BME280;53405;57.012;40.984;2023-03-21T02:00:56;99648.41;;;1.20;72.76
59391;BME280;53405;57.012;40.984;2023-03-21T02:03:35;99648.16;;;1.23;73.19
59391;BME280;53405;57.012;40.984;2023-03-21T02:06:46;99607.22;;;1.05;71.60
59391;BME280;53405;57.012;40.984;2023-03-21T02:09:34;99646.81;;;1.50;70.33
59391;BME280;53405;57.012;40.984;2023-03-21T02:12:09;99651.31;;;1.48;71.20
59391;BME280;53405;57.012;40.984;2023-03-21T02:14:37;99645.75;;;1.52;72.67
59391;BME280;53405;57.012;40.984;2023-03-21T02:18:03;99634.91;;;1.68;70.57
59391;BME280;53405;57.012;40.984;2023-03-21T02:35:16;99615.06;;;1.36;70.87
59391;BME280;53405;57.012;40.984;2023-03-21T02:37:58;99608.28;;;1.24;71.17
59391;BME280;53405;57.012;40.984;2023-03-21T02:40:46;99610.75;;;1.25;70.79
59391;BME280;53405;57.012;40.984;2023-03-21T02:46:25;99591.59;;;1.17;70.58
59391;BME280;53405;57.012;40.984;2023-03-21T02:51:37;99595.47;;;1.01;72.88
59391;BME280;53405;57.012;40.984;2023-03-21T02:54:11;99595.78;;;1.08;73.32
59391;BME280;53405;57.012;40.984;2023-03-21T02:56:58;99596.34;;;1.12;73.02
59391;BME280;53405;57.012;40.984;2023-03-21T02:59:27;99593.28;;;1.27;72.12
59391;BME280;53405;57.012;40.984;2023-03-21T03:01:58;99568.81;;;1.20;71.92
59391;BME280;53405;57.012;40.984;2023-03-21T03:04:27;99570.91;;;1.05;72.31
59391;BME280;53405;57.012;40.984;2023-03-21T03:10:42;99573.81;;;1.33;70.01
59391;BME280;53405;57.012;40.984;2023-03-21T03:21:29;99581.91;;;1.19;73.27
59391;BME280;53405;57.012;40.984;2023-03-21T03:24:02;99516.56;;;1.04;73.56
59391;BME280;53405;57.012;40.984;2023-03-21T03:26:40;99573.41;;;1.38;72.51
59391;BME280;53405;57.012;40.984;2023-03-21T03:29:16;99558.78;;;1.37;72.84
59391;BME280;53405;57.012;40.984;2023-03-21T03:31:52;99573.41;;;1.38;73.17
59391;BME280;53405;57.012;40.984;2023-03-21T03:34:29;99545.72;;;1.17;72.73
59391;BME280;53405;57.012;40.984;2023-03-21T03:37:02;99524.72;;;1.20;71.31
59391;BME280;53405;57.012;40.984;2023-03-21T03:39:41;99561.16;;;1.50;71.31
59391;BME280;53405;57.012;40.984;2023-03-21T03:42:20;99566.06;;;1.43;72.53
59391;BME280;53405;57.012;40.984;2023-03-21T03:45:09;99551.25;;;1.55;72.69
59391;BME280;53405;57.012;40.984;2023-03-21T03:47:52;99554.38;;;1.58;71.58
59391;BME280;53405;57.012;40.984;2023-03-21T03:50:33;99553.38;;;1.50;72.88
59391;BME280;53405;57.012;40.984;2023-03-21T03:53:20;99563.31;;;1.66;73.58
59391;BME280;53405;57.012;40.984;2023-03-21T03:55:53;99541.50;;;1.47;71.76
59391;BME280;53405;57.012;40.984;2023-03-21T03:58:23;99550.13;;;1.57;71.36
59391;BME280;53405;57.012;40.984;2023-03-21T04:01:01;99544.91;;;1.48;71.93
59391;BME280;53405;57.012;40.984;2023-03-21T04:03:30;99541.16;;;1.61;71.37
59391;BME280;53405;57.012;40.984;2023-03-21T04:06:12;99543.31;;;1.56;72.25
59391;BME280;53405;57.012;40.984;2023-03-21T04:08:39;99544.00;;;1.58;72.43
59391;BME280;53405;57.012;40.984;2023-03-21T04:11:07;99542.34;;;1.57;72.45
59391;BME280;53405;57.012;40.984;2023-03-21T04:13:37;99544.91;;;1.48;72.93
59391;BME280;53405;57.012;40.984;2023-03-21T04:16:08;99520.31;;;1.42;72.60
59391;BME280;53405;57.012;40.984;2023-03-21T04:18:38;99532.75;;;1.48;72.90
59391;BME280;53405;57.012;40.984;2023-03-21T04:21:11;99523.94;;;1.30;72.80
59391;BME280;53405;57.012;40.984;2023-03-21T04:23:40;99533.16;;;1.43;74.04
59391;BME280;53405;57.012;40.984;2023-03-21T04:26:08;99486.66;;;1.00;73.03
59391;BME280;53405;57.012;40.984;2023-03-21T04:28:41;99534.13;;;1.42;73.99
59391;BME280;53405;57.012;40.984;2023-03-21T04:31:21;99530.78;;;1.61;73.09
59391;BME280;53405;57.012;40.984;2023-03-21T04:34:04;99526.34;;;1.52;72.83
59391;BME280;53405;57.012;40.984;2023-03-21T04:36:38;99531.03;;;1.58;73.45
59391;BME280;53405;57.012;40.984;2023-03-21T04:39:14;99527.66;;;1.68;72.63
59391;BME280;53405;57.012;40.984;2023-03-21T04:41:45;99523.69;;;1.73;72.49
59391;BME280;53405;57.012;40.984;2023-03-21T04:44:14;99511.47;;;1.54;71.76
59391;BME280;53405;57.012;40.984;2023-03-21T04:46:43;99509.97;;;1.52;72.02
59391;BME280;53405;57.012;40.984;2023-03-21T04:49:12;99518.94;;;1.38;72.19
59391;BME280;53405;57.012;40.984;2023-03-21T04:51:41;99528.03;;;1.63;71.46
59391;BME280;53405;57.012;40.984;2023-03-21T04:54:15;99487.94;;;1.36;72.00
59391;BME280;53405;57.012;40.984;2023-03-21T04:56:43;99514.97;;;1.84;70.85
59391;BME280;53405;57.012;40.984;2023-03-21T04:59:14;99516.78;;;1.93;71.23
59391;BME280;53405;57.012;40.984;2023-03-21T05:01:41;99517.22;;;2.08;68.84
59391;BME280;53405;57.012;40.984;2023-03-21T05:04:12;99501.91;;;2.05;68.38
59391;BME280;53405;57.012;40.984;2023-03-21T05:06:40;99520.50;;;2.30;68.60
59391;BME280;53405;57.012;40.984;2023-03-21T05:09:11;99521.63;;;2.27;68.27
59391;BME280;53405;57.012;40.984;2023-03-21T05:11:39;99526.50;;;2.11;69.10
59391;BME280;53405;57.012;40.984;2023-03-21T05:14:11;99488.06;;;1.95;68.71
59391;BME280;53405;57.012;40.984;2023-03-21T05:16:41;99516.69;;;2.24;68.15
59391;BME280;53405;57.012;40.984;2023-03-21T05:19:15;99490.00;;;2.03;68.74
59391;BME280;53405;57.012;40.984;2023-03-21T05:21:45;99501.50;;;2.10;69.25
59391;BME280;53405;57.012;40.984;2023-03-21T05:24:20;99503.97;;;2.31;68.40
59391;BME280;53405;57.012;40.984;2023-03-21T05:26:49;99485.34;;;2.16;69.57
59391;BME280;53405;57.012;40.984;2023-03-21T05:29:22;99496.44;;;2.38;68.95
59391;BME280;53405;57.012;40.984;2023-03-21T05:31:55;99464.44;;;2.08;69.71
59391;BME280;53405;57.012;40.984;2023-03-21T05:34:23;99500.00;;;2.46;69.10
59391;BME280;53405;57.012;40.984;2023-03-21T05:36:51;99503.38;;;2.66;69.36
59391;BME280;53405;57.012;40.984;2023-03-21T05:39:20;99493.97;;;2.46;68.51
59391;BME280;53405;57.012;40.984;2023-03-21T05:42:13;99496.44;;;2.67;67.53
59391;BME280;53405;57.012;40.984;2023-03-21T05:44:41;99493.72;;;2.59;67.78
59391;BME280;53405;57.012;40.984;2023-03-21T05:47:11;99476.31;;;2.69;68.11
59391;BME280;53405;57.012;40.984;2023-03-21T05:49:45;99486.41;;;2.82;66.84
59391;BME280;53405;57.012;40.984;2023-03-21T05:52:14;99490.94;;;2.80;67.91
59391;BME280;53405;57.012;40.984;2023-03-21T05:54:43;99496.66;;;2.83;67.39
59391;BME280;53405;57.012;40.984;2023-03-21T05:57:11;99497.06;;;2.98;67.76
59391;BME280;53405;57.012;40.984;2023-03-21T05:59:52;99500.72;;;3.05;66.74
59391;BME280;53405;57.012;40.984;2023-03-21T06:02:20;99486.69;;;2.79;66.95
59391;BME280;53405;57.012;40.984;2023-03-21T06:04:48;99470.78;;;2.82;67.01
59391;BME280;53405;57.012;40.984;2023-03-21T06:07:19;99475.69;;;3.04;67.75
59391;BME280;53405;57.012;40.984;2023-03-21T06:09:48;99475.50;;;3.16;65.77
59391;BME280;53405;57.012;40.984;2023-03-21T06:12:16;99465.53;;;3.11;65.22
59391;BME280;53405;57.012;40.984;2023-03-21T06:15:01;99469.59;;;3.23;66.25
59391;BME280;53405;57.012;40.984;2023-03-21T06:17:32;99472.47;;;3.20;64.96
59391;BME280;53405;57.012;40.984;2023-03-21T06:20:07;99420.25;;;2.94;65.89
59391;BME280;53405;57.012;40.984;2023-03-21T06:22:40;99428.63;;;2.88;65.18
59391;BME280;53405;57.012;40.984;2023-03-21T06:25:08;99462.03;;;3.30;65.43
59391;BME280;53405;57.012;40.984;2023-03-21T06:27:36;99461.72;;;3.33;66.59
59391;BME280;53405;57.012;40.984;2023-03-21T06:30:06;99463.13;;;3.28;65.58
59391;BME280;53405;57.012;40.984;2023-03-21T06:32:43;99464.00;;;3.46;66.26
59391;BME280;53405;57.012;40.984;2023-03-21T06:35:15;99460.91;;;3.60;66.46
59391;BME280;53405;57.012;40.984;2023-03-21T06:37:42;99441.94;;;3.50;65.74
59391;BME280;53405;57.012;40.984;2023-03-21T06:40:12;99450.16;;;3.46;65.89
59391;BME280;53405;57.012;40.984;2023-03-21T06:42:40;99447.13;;;3.50;65.47
59391;BME280;53405;57.012;40.984;2023-03-21T06:45:09;99439.94;;;3.62;65.21
59391;BME280;53405;57.012;40.984;2023-03-21T06:47:37;99433.78;;;3.81;66.44
59391;BME280;53405;57.012;40.984;2023-03-21T06:50:12;99425.81;;;3.83;67.07
59391;BME280;53405;57.012;40.984;2023-03-21T06:52:42;99439.66;;;3.83;63.26
59391;BME280;53405;57.012;40.984;2023-03-21T06:55:12;99426.25;;;3.78;64.22
59391;BME280;53405;57.012;40.984;2023-03-21T06:57:39;99421.63;;;3.72;64.02
59391;BME280;53405;57.012;40.984;2023-03-21T07:00:09;99413.53;;;3.75;64.73
59391;BME280;53405;57.012;40.984;2023-03-21T07:02:41;99426.19;;;3.70;62.96
59391;BME280;53405;57.012;40.984;2023-03-21T07:05:14;99422.97;;;3.76;62.66
59391;BME280;53405;57.012;40.984;2023-03-21T07:07:42;99392.06;;;3.45;63.39
59391;BME280;53405;57.012;40.984;2023-03-21T07:10:10;99427.16;;;4.05;63.99
59391;BME280;53405;57.012;40.984;2023-03-21T07:12:53;99424.19;;;4.00;62.41
59391;BME280;53405;57.012;40.984;2023-03-21T07:15:25;99430.34;;;3.98;65.64
59391;BME280;53405;57.012;40.984;2023-03-21T07:17:52;99435.88;;;4.13;64.04
59391;BME280;53405;57.012;40.984;2023-03-21T07:20:19;99428.13;;;4.04;65.03
59391;BME280;53405;57.012;40.984;2023-03-21T07:22:47;99435.19;;;4.29;62.15
59391;BME280;53405;57.012;40.984;2023-03-21T07:25:15;99391.19;;;4.26;63.28
59391;BME280;53405;57.012;40.984;2023-03-21T07:27:44;99428.97;;;4.48;62.23
59391;BME280;53405;57.012;40.984;2023-03-21T07:30:12;99409.59;;;4.77;63.65
59391;BME280;53405;57.012;40.984;2023-03-21T07:32:40;99430.91;;;4.99;63.88
59391;BME280;53405;57.012;40.984;2023-03-21T07:35:13;99419.41;;;4.83;62.23
59391;BME280;53405;57.012;40.984;2023-03-21T07:37:41;99371.50;;;4.58;61.83
59391;BME280;53405;57.012;40.984;2023-03-21T07:40:12;99422.81;;;4.84;63.36
59391;BME280;53405;57.012;40.984;2023-03-21T07:42:39;99413.59;;;4.98;59.96
59391;BME280;53405;57.012;40.984;2023-03-21T07:45:10;99397.38;;;4.78;59.14
59391;BME280;53405;57.012;40.984;2023-03-21T07:47:39;99409.53;;;4.95;59.66
59391;BME280;53405;57.012;40.984;2023-03-21T07:50:07;99413.22;;;4.84;58.34
59391;BME280;53405;57.012;40.984;2023-03-21T07:52:34;99409.94;;;4.82;59.11
59391;BME280;53405;57.012;40.984;2023-03-21T07:55:02;99391.91;;;4.89;60.22
59391;BME280;53405;57.012;40.984;2023-03-21T07:57:30;99406.34;;;5.10;59.86
59391;BME280;53405;57.012;40.984;2023-03-21T07:59:57;99397.03;;;5.07;59.58
59391;BME280;53405;57.012;40.984;2023-03-21T08:02:24;99398.50;;;4.75;60.11
59391;BME280;53405;57.012;40.984;2023-03-21T08:04:52;99390.66;;;5.01;63.96
59391;BME280;53405;57.012;40.984;2023-03-21T08:07:19;99383.13;;;4.98;61.79
59391;BME280;53405;57.012;40.984;2023-03-21T08:09:46;99370.59;;;5.02;58.36
59391;BME280;53405;57.012;40.984;2023-03-21T08:12:14;99396.72;;;5.10;57.48
59391;BME280;53405;57.012;40.984;2023-03-21T08:14:41;99373.47;;;4.91;58.04
59391;BME280;53405;57.012;40.984;2023-03-21T08:17:09;99391.31;;;5.03;61.34
59391;BME280;53405;57.012;40.984;2023-03-21T08:19:36;99386.59;;;5.15;58.48
59391;BME280;53405;57.012;40.984;2023-03-21T08:22:04;99391.00;;;5.06;60.32
59391;BME280;53405;57.012;40.984;2023-03-21T08:24:32;99385.06;;;4.96;58.91
59391;BME280;53405;57.012;40.984;2023-03-21T08:27:00;99359.97;;;4.95;59.35
59391;BME280;53405;57.012;40.984;2023-03-21T08:29:28;99379.81;;;5.31;57.44
59391;BME280;53405;57.012;40.984;2023-03-21T08:31:56;99368.56;;;5.30;58.15
59391;BME280;53405;57.012;40.984;2023-03-21T08:34:24;99376.75;;;5.43;59.87
59391;BME280;53405;57.012;40.984;2023-03-21T08:36:52;99375.63;;;5.54;61.11
59391;BME280;53405;57.012;40.984;2023-03-21T08:39:20;99380.56;;;5.74;59.92
59391;BME280;53405;57.012;40.984;2023-03-21T08:41:47;99368.25;;;5.41;59.23
59391;BME280;53405;57.012;40.984;2023-03-21T08:44:15;99361.13;;;5.60;60.58
59391;BME280;53405;57.012;40.984;2023-03-21T08:46:43;99373.50;;;5.58;59.63
59391;BME280;53405;57.012;40.984;2023-03-21T08:49:10;99350.63;;;5.52;60.74
59391;BME280;53405;57.012;40.984;2023-03-21T08:51:38;99361.13;;;5.60;59.29
59391;BME280;53405;57.012;40.984;2023-03-21T08:54:07;99366.28;;;5.35;60.03
59391;BME280;53405;57.012;40.984;2023-03-21T08:56:35;99324.13;;;5.14;59.67
59391;BME280;53405;57.012;40.984;2023-03-21T08:59:03;99365.00;;;5.39;59.69
59391;BME280;53405;57.012;40.984;2023-03-21T09:01:30;99368.09;;;5.43;58.99
59391;BME280;53405;57.012;40.984;2023-03-21T09:03:58;99354.25;;;5.59;60.00
59391;BME280;53405;57.012;40.984;2023-03-21T09:06:25;99367.47;;;5.49;58.59
59391;BME280;53405;57.012;40.984;2023-03-21T09:08:53;99371.09;;;5.65;60.28
59391;BME280;53405;57.012;40.984;2023-03-21T09:11:21;99373.22;;;5.86;59.47
59391;BME280;53405;57.012;40.984;2023-03-21T09:13:49;99375.84;;;5.94;55.43
59391;BME280;53405;57.012;40.984;2023-03-21T09:16:17;99374.72;;;5.88;55.23
59391;BME280;53405;57.012;40.984;2023-03-21T09:18:44;99369.78;;;5.77;55.61
59391;BME280;53405;57.012;40.984;2023-03-21T09:21:15;99359.00;;;5.80;58.24
59391;BME280;53405;57.012;40.984;2023-03-21T09:23:44;99356.09;;;5.91;57.62
59391;BME280;53405;57.012;40.984;2023-03-21T09:26:12;99355.13;;;6.01;55.92
59391;BME280;53405;57.012;40.984;2023-03-21T09:28:39;99348.25;;;6.08;56.86
59391;BME280;53405;57.012;40.984;2023-03-21T09:31:07;99363.47;;;6.04;57.55
59391;BME280;53405;57.012;40.984;2023-03-21T09:33:38;99306.09;;;5.86;57.29
59391;BME280;53405;57.012;40.984;2023-03-21T09:36:09;99353.47;;;6.32;57.38
59391;BME280;53405;57.012;40.984;2023-03-21T09:38:45;99337.94;;;6.39;55.02
59391;BME280;53405;57.012;40.984;2023-03-21T09:47:19;99323.09;;;5.99;55.24
59391;BME280;53405;57.012;40.984;2023-03-21T09:49:55;99326.22;;;6.10;57.27
59391;BME280;53405;57.012;40.984;2023-03-21T09:55:39;99325.34;;;6.35;55.29
59391;BME280;53405;57.012;40.984;2023-03-21T09:58:23;99320.25;;;6.41;56.21
59391;BME280;53405;57.012;40.984;2023-03-21T10:01:03;99334.19;;;6.25;58.06
59391;BME280;53405;57.012;40.984;2023-03-21T10:03:33;99319.81;;;6.29;58.80
59391;BME280;53405;57.012;40.984;2023-03-21T10:06:21;99328.47;;;6.30;59.45
59391;BME280;53405;57.012;40.984;2023-03-21T10:09:02;99333.34;;;6.41;58.01
59391;BME280;53405;57.012;40.984;2023-03-21T10:11:43;99334.00;;;6.51;55.78
59391;BME280;53405;57.012;40.984;2023-03-21T10:14:34;99332.66;;;6.56;56.61
59391;BME280;53405;57.012;40.984;2023-03-21T10:19:43;99333.22;;;6.26;55.85
59391;BME280;53405;57.012;40.984;2023-03-21T10:22:12;99326.19;;;6.27;57.14
59391;BME280;53405;57.012;40.984;2023-03-21T10:24:39;99326.69;;;6.22;56.63
59391;BME280;53405;57.012;40.984;2023-03-21T10:27:08;99325.81;;;6.38;57.60
59391;BME280;53405;57.012;40.984;2023-03-21T10:29:43;99284.50;;;6.25;57.88
59391;BME280;53405;57.012;40.984;2023-03-21T10:32:14;99260.84;;;6.02;57.53
59391;BME280;53405;57.012;40.984;2023-03-21T10:34:54;99315.88;;;6.25;59.80
59391;BME280;53405;57.012;40.984;2023-03-21T10:37:28;99314.75;;;6.28;56.20
59391;BME280;53405;57.012;40.984;2023-03-21T10:39:55;99298.56;;;6.16;57.38
59391;BME280;53405;57.012;40.984;2023-03-21T10:42:25;99305.59;;;6.24;57.17
59391;BME280;53405;57.012;40.984;2023-03-21T10:44:54;99286.50;;;5.99;57.92
59391;BME280;53405;57.012;40.984;2023-03-21T10:47:30;99296.06;;;6.47;57.69
59391;BME280;53405;57.012;40.984;2023-03-21T10:50:11;99301.03;;;6.74;56.08
59391;BME280;53405;57.012;40.984;2023-03-21T10:52:46;99295.59;;;6.83;57.84
59391;BME280;53405;57.012;40.984;2023-03-21T10:55:25;99244.03;;;6.92;56.71
59391;BME280;53405;57.012;40.984;2023-03-21T10:58:09;99238.91;;;7.22;56.86
59391;BME280;53405;57.012;40.984;2023-03-21T11:00:45;99293.09;;;7.68;57.39
59391;BME280;53405;57.012;40.984;2023-03-21T11:03:21;99279.78;;;7.54;54.94
59391;BME280;53405;57.012;40.984;2023-03-21T11:05:54;99274.94;;;7.20;55.36
59391;BME280;53405;57.012;40.984;2023-03-21T11:08:23;99279.03;;;7.46;55.62
59391;BME280;53405;57.012;40.984;2023-03-21T11:10:54;99294.41;;;7.72;56.37
59391;BME280;53405;57.012;40.984;2023-03-21T11:13:33;99278.16;;;7.91;54.97
59391;BME280;53405;57.012;40.984;2023-03-21T11:16:30;99274.19;;;7.81;54.00
59391;BME280;53405;57.012;40.984;2023-03-21T11:19:10;99266.72;;;7.69;55.32
59391;BME280;53405;57.012;40.984;2023-03-21T11:21:38;99280.75;;;7.62;56.75
59391;BME280;53405;57.012;40.984;2023-03-21T11:24:13;99261.34;;;7.48;56.93
59391;BME280;53405;57.012;40.984;2023-03-21T11:26:45;99234.41;;;7.16;55.98
59391;BME280;53405;57.012;40.984;2023-03-21T11:29:28;99267.78;;;7.14;58.28
59391;BME280;53405;57.012;40.984;2023-03-21T11:32:11;99272.97;;;7.22;55.60
59391;BME280;53405;57.012;40.984;2023-03-21T11:34:48;99237.50;;;6.88;57.07
59391;BME280;53405;57.012;40.984;2023-03-21T11:37:24;99261.88;;;6.88;56.95
59391;BME280;53405;57.012;40.984;2023-03-21T11:40:24;99256.63;;;6.88;57.56
59391;BME280;53405;57.012;40.984;2023-03-21T11:43:03;99258.94;;;7.15;59.06
59391;BME280;53405;57.012;40.984;2023-03-21T11:46:21;99255.28;;;7.01;60.27
59391;BME280;53405;57.012;40.984;2023-03-21T11:48:48;99254.34;;;6.94;61.76
59391;BME280;53405;57.012;40.984;2023-03-21T11:56:28;99262.00;;;6.64;66.00
59391;BME280;53405;57.012;40.984;2023-03-21T11:59:17;99253.69;;;6.92;65.55
59391;BME280;53405;57.012;40.984;2023-03-21T12:01:57;99258.91;;;6.92;65.13
59391;BME280;53405;57.012;40.984;2023-03-21T12:04:46;99248.63;;;6.90;66.08
59391;BME280;53405;57.012;40.984;2023-03-21T12:10:43;99243.88;;;6.62;69.02
59391;BME280;53405;57.012;40.984;2023-03-21T12:13:16;99254.13;;;6.72;67.98
59391;BME280;53405;57.012;40.984;2023-03-21T12:15:56;99244.72;;;6.46;67.69
59391;BME280;53405;57.012;40.984;2023-03-21T12:21:10;99207.25;;;6.14;68.53
59391;BME280;53405;57.012;40.984;2023-03-21T12:26:24;99247.31;;;6.55;70.06
59391;BME280;53405;57.012;40.984;2023-03-21T12:45:41;99228.25;;;6.38;68.10
59391;BME280;53405;57.012;40.984;2023-03-21T12:50:53;99211.00;;;6.20;67.81
59391;BME280;53405;57.012;40.984;2023-03-21T12:53:53;99219.44;;;6.39;67.69
59391;BME280;53405;57.012;40.984;2023-03-21T12:57:00;99221.38;;;6.37;67.85
59391;BME280;53405;57.012;40.984;2023-03-21T12:59:57;99214.88;;;6.32;67.40
59391;BME280;53405;57.012;40.984;2023-03-21T13:02:32;99213.88;;;6.42;66.62
59391;BME280;53405;57.012;40.984;2023-03-21T13:07:59;99157.47;;;5.91;67.15
59391;BME280;53405;57.012;40.984;2023-03-21T13:10:29;99190.94;;;6.04;67.52
59391;BME280;53405;57.012;40.984;2023-03-21T13:15:46;99202.41;;;5.87;68.06
59391;BME280;53405;57.012;40.984;2023-03-21T13:24:14;99192.63;;;5.72;68.89
59391;BME280;53405;57.012;40.984;2023-03-21T13:27:00;99192.94;;;5.77;68.84
59391;BME280;53405;57.012;40.984;2023-03-21T13:29:51;99187.34;;;5.89;68.62
59391;BME280;53405;57.012;40.984;2023-03-21T13:35:00;99145.38;;;5.90;67.87
59391;BME280;53405;57.012;40.984;2023-03-21T13:37:33;99193.63;;;6.27;67.63
59391;BME280;53405;57.012;40.984;2023-03-21T13:40:05;99180.63;;;6.50;66.33
59391;BME280;53405;57.012;40.984;2023-03-21T13:42:51;99185.28;;;6.32;66.48
59391;BME280;53405;57.012;40.984;2023-03-21T13:45:44;99172.75;;;6.19;67.18
59391;BME280;53405;57.012;40.984;2023-03-21T13:48:29;99179.75;;;6.27;69.57
59391;BME280;53405;57.012;40.984;2023-03-21T13:51:04;99155.13;;;6.21;68.99
59391;BME280;53405;57.012;40.984;2023-03-21T13:54:41;99179.59;;;6.28;67.01
59391;BME280;53405;57.012;40.984;2023-03-21T13:59:12;99135.56;;;5.92;67.77
59391;BME280;53405;57.012;40.984;2023-03-21T14:04:20;99166.09;;;6.17;68.66
59391;BME280;53405;57.012;40.984;2023-03-21T14:06:56;99161.94;;;6.22;68.28
59391;BME280;53405;57.012;40.984;2023-03-21T14:09:38;99165.91;;;6.18;69.71
59391;BME280;53405;57.012;40.984;2023-03-21T14:12:12;99164.94;;;6.11;67.71
59391;BME280;53405;57.012;40.984;2023-03-21T14:14:45;99149.25;;;6.11;67.67
59391;BME280;53405;57.012;40.984;2023-03-21T14:17:23;99154.53;;;6.03;66.89
59391;BME280;53405;57.012;40.984;2023-03-21T14:19:58;99147.19;;;5.98;67.58
59391;BME280;53405;57.012;40.984;2023-03-21T14:22:26;99146.84;;;5.93;67.96
59391;BME280;53405;57.012;40.984;2023-03-21T14:24:57;99149.44;;;6.09;68.57
59391;BME280;53405;57.012;40.984;2023-03-21T14:27:29;99142.56;;;6.17;69.63
59391;BME280;53405;57.012;40.984;2023-03-21T14:29:57;99141.69;;;6.24;67.02
59391;BME280;53405;57.012;40.984;2023-03-21T14:32:26;99133.53;;;6.19;68.11
59391;BME280;53405;57.012;40.984;2023-03-21T14:34:59;99116.56;;;6.15;66.93
59391;BME280;53405;57.012;40.984;2023-03-21T14:37:37;99083.84;;;5.79;67.99
59391;BME280;53405;57.012;40.984;2023-03-21T14:40:29;99127.72;;;6.09;68.64
59391;BME280;53405;57.012;40.984;2023-03-21T14:42:55;99137.34;;;6.08;67.93
59391;BME280;53405;57.012;40.984;2023-03-21T14:45:27;99135.09;;;5.97;66.84
59391;BME280;53405;57.012;40.984;2023-03-21T14:53:28;99099.91;;;5.60;68.74
59391;BME280;53405;57.012;40.984;2023-03-21T14:56:01;99111.34;;;5.59;68.30
59391;BME280;53405;57.012;40.984;2023-03-21T14:58:30;99114.41;;;5.63;68.39
59391;BME280;53405;57.012;40.984;2023-03-21T15:01:01;99107.28;;;5.48;69.39
59391;BME280;53405;57.012;40.984;2023-03-21T15:03:33;99128.16;;;5.65;68.56
59391;BME280;53405;57.012;40.984;2023-03-21T15:06:03;99122.50;;;5.36;68.51
59391;BME280;53405;57.012;40.984;2023-03-21T15:08:30;99130.31;;;5.36;68.09
59391;BME280;53405;57.012;40.984;2023-03-21T15:11:03;99117.78;;;5.23;69.44
59391;BME280;53405;57.012;40.984;2023-03-21T15:13:48;99111.72;;;5.23;68.46
59391;BME280;53405;57.012;40.984;2023-03-21T15:16:18;99128.38;;;5.22;70.05